Time;durP1;ratioP1;P1;durP2;ratioP2;P2;SDS_P1;SDS_P2;PMS_P1;PMS_P2;Temp;Humidity;BMP_temperature;BMP_pressure;BME280_temperature;BME280_humidity;BME280_pressure;Samples;Min_cycle;Max_cycle;Signal;HPM_P1;HPM_P2
2023/01/27 07:01:40;;;;;;;10.85;9.75;;;;;;;-145.79;75.64;79696.81;5284117;28;20417;-67
2023/01/27 07:04:11;;;;;;;10.73;9.18;;;;;;;-145.79;75.97;79684.09;5279703;28;20032;-67
2023/01/27 07:06:42;;;;;;;11.38;9.80;;;;;;;-145.79;75.22;79679.84;5262118;28;20029;-67
2023/01/27 07:09:14;;;;;;;10.30;9.23;;;;;;;-145.79;74.99;79679.84;5278373;28;20044;-67
2023/01/27 07:11:48;;;;;;;11.35;8.98;;;;;;;-145.79;74.85;79675.63;5270571;28;20040;-67
2023/01/27 07:14:22;;;;;;;11.20;9.02;;;;;;;-145.79;75.23;79669.25;5271363;28;20114;-67
2023/01/27 07:16:53;;;;;;;10.25;8.60;;;;;;;-145.79;74.88;79667.13;5262802;28;20127;-67
2023/01/27 07:19:24;;;;;;;10.80;9.15;;;;;;;-145.79;74.55;79660.75;5274214;28;20048;-67
2023/01/27 07:21:59;;;;;;;10.90;8.73;;;;;;;-145.79;74.01;79660.75;5256280;28;20071;-67
2023/01/27 07:24:37;;;;;;;9.35;7.30;;;;;;;-145.79;73.87;79660.75;5259311;28;20053;-67
2023/01/27 07:27:08;;;;;;;9.00;8.10;;;;;;;-145.79;74.01;79658.66;5268050;28;20017;-67
2023/01/27 07:29:41;;;;;;;11.23;7.75;;;;;;;-145.79;74.18;79650.16;5271784;28;20151;-67
2023/01/27 07:32:12;;;;;;;8.43;7.28;;;;;;;-145.79;73.85;79662.88;5266620;28;20021;-67
2023/01/27 07:34:43;;;;;;;12.65;9.38;;;;;;;-145.79;74.10;79654.41;5243748;28;20101;-67
2023/01/27 07:37:15;;;;;;;8.73;7.20;;;;;;;-145.79;73.37;79641.69;5279193;28;20490;-67
2023/01/27 07:39:47;;;;;;;9.10;7.75;;;;;;;-145.79;73.36;79652.28;5270097;28;20026;-66
2023/01/27 07:42:18;;;;;;;8.60;7.13;;;;;;;-145.79;73.04;79645.91;5270771;28;20028;-67
2023/01/27 07:44:49;;;;;;;7.13;6.43;;;;;;;-145.79;72.86;79645.91;5276456;28;20056;-67
2023/01/27 07:47:23;;;;;;;7.47;6.68;;;;;;;-145.79;72.91;79652.28;5263312;28;20024;-67
2023/01/27 07:49:54;;;;;;;7.68;6.88;;;;;;;-145.79;73.02;79648.03;5268391;28;20032;-67
2023/01/27 07:52:25;;;;;;;8.25;6.20;;;;;;;-145.79;72.75;79650.16;5272269;28;20029;-67
2023/01/27 07:55:01;;;;;;;9.00;6.70;;;;;;;-145.79;72.61;79643.81;5261645;28;20511;-67
2023/01/27 07:57:35;;;;;;;7.68;6.53;;;;;;;-145.79;72.94;79658.66;5262471;28;20112;-70
2023/01/27 08:00:14;;;;;;;5.55;4.93;;;;;;;-145.79;77.50;79584.41;5259719;28;20076;-69
2023/01/27 08:02:50;;;;;;;6.18;5.60;;;;;;;-145.79;75.62;79597.13;5259761;28;20332;-68
2023/01/27 08:05:22;;;;;;;5.72;5.20;;;;;;;-145.79;75.49;79586.53;5252768;28;20021;-67
2023/01/27 08:07:55;;;;;;;7.03;5.70;;;;;;;-145.79;74.76;79592.91;5268427;28;20021;-69
2023/01/27 08:10:26;;;;;;;6.18;5.53;;;;;;;-145.79;73.39;79590.78;5271121;28;20056;-69
2023/01/27 08:12:57;;;;;;;6.70;5.40;;;;;;;-145.79;74.47;79563.22;5247938;28;20060;-69
2023/01/27 08:15:29;;;;;;;6.43;5.88;;;;;;;-145.79;73.46;79578.06;5257416;28;20107;-70
2023/01/27 08:18:01;;;;;;;6.80;6.13;;;;;;;-145.79;72.00;79601.38;5262028;28;20060;-69
2023/01/27 08:20:32;;;;;;;6.95;5.47;;;;;;;-145.79;71.95;79599.25;5259084;28;20029;-69
2023/01/27 08:23:03;;;;;;;6.50;5.63;;;;;;;-145.79;72.52;79582.28;5246999;28;20471;-68
2023/01/27 08:25:35;;;;;;;5.95;5.40;;;;;;;-145.79;74.52;79544.13;5257170;28;20025;-69
2023/01/27 08:28:09;;;;;;;6.97;5.28;;;;;;;-145.79;73.08;79548.38;5255025;28;20047;-69
2023/01/27 08:30:40;;;;;;;7.13;5.80;;;;;;;-145.79;71.95;79569.56;5245299;28;20041;-68
2023/01/27 08:33:12;;;;;;;8.27;5.35;;;;;;;-145.79;73.67;79537.75;5244739;28;20021;-70
2023/01/27 08:35:44;;;;;;;6.00;4.93;;;;;;;-145.79;73.13;79527.16;5254384;28;20065;-70
2023/01/27 08:38:17;;;;;;;6.30;5.70;;;;;;;-145.79;72.62;79525.03;5246710;28;20021;-70
2023/01/27 08:40:49;;;;;;;8.55;5.88;;;;;;;-145.79;71.19;79573.81;5247194;28;20068;-69
2023/01/27 08:43:20;;;;;;;8.40;5.78;;;;;;;-145.79;73.32;79516.56;5258730;28;20048;-69
2023/01/27 08:45:51;;;;;;;8.15;6.03;;;;;;;-145.79;72.05;79548.38;5251873;28;20021;-69
2023/01/27 08:48:23;;;;;;;27.90;20.85;;;;;;;-145.79;72.50;79522.91;5250201;28;20021;-68
2023/01/27 08:50:55;;;;;;;12.35;8.25;;;;;;;-145.79;70.95;79573.81;5259847;28;20121;-69
2023/01/27 08:53:27;;;;;;;9.98;8.50;;;;;;;-145.79;72.77;79522.91;5256925;28;20056;-69
2023/01/27 08:56:04;;;;;;;10.23;6.35;;;;;;;-145.79;71.43;79537.75;5248098;28;20056;-70
2023/01/27 08:58:58;;;;;;;6.13;5.53;;;;;;;-145.79;71.58;79533.53;5257575;28;20108;-70
2023/01/27 09:01:30;;;;;;;7.35;5.95;;;;;;;-145.79;71.62;79535.63;5243021;28;20048;-69
2023/01/27 09:04:02;;;;;;;9.73;6.35;;;;;;;-145.79;71.84;79542.00;5245817;28;20029;-70
2023/01/27 09:06:34;;;;;;;7.93;5.53;;;;;;;-145.79;70.73;79582.28;5242579;28;20033;-70
2023/01/27 09:09:08;;;;;;;6.07;5.10;;;;;;;-145.79;70.87;79586.53;5251344;28;20052;-70
2023/01/27 09:11:41;;;;;;;5.40;4.90;;;;;;;-145.79;71.00;79592.91;5241690;28;20037;-70
2023/01/27 09:14:13;;;;;;;6.50;5.57;;;;;;;-145.79;71.14;79565.34;5253855;28;20029;-72
2023/01/27 09:16:44;;;;;;;5.95;5.30;;;;;;;-145.79;71.17;79573.81;5258274;28;20021;-72
2023/01/27 09:19:18;;;;;;;7.40;6.15;;;;;;;-145.79;71.69;79563.22;5246391;28;20025;-72
2023/01/27 09:21:49;;;;;;;6.38;5.38;;;;;;;-145.79;71.81;79544.13;5253451;28;20441;-73
2023/01/27 09:24:21;;;;;;;6.50;5.25;;;;;;;-145.79;72.11;79546.25;5249774;28;20044;-72
2023/01/27 09:26:53;;;;;;;6.00;5.40;;;;;;;-145.79;70.05;79588.66;5255234;28;20105;-71
2023/01/27 09:29:24;;;;;;;7.55;6.85;;;;;;;-145.79;69.99;79586.53;5258157;28;20044;-69
2023/01/27 09:31:55;;;;;;;7.57;5.35;;;;;;;-145.79;71.11;79569.56;5243053;28;20026;-69
2023/01/27 09:34:27;;;;;;;5.10;4.60;;;;;;;-145.79;70.52;79565.34;5255794;28;20028;-68
2023/01/27 09:37:07;;;;;;;6.43;5.00;;;;;;;-145.79;71.95;79529.28;5244373;28;20439;-69
2023/01/27 09:39:48;;;;;;;5.45;4.95;;;;;;;-145.79;71.60;79533.53;5240809;28;20116;-71
2023/01/27 09:43:01;;;;;;;5.90;5.38;;;;;;;-145.79;69.60;79554.72;5247671;28;20025;-67
2023/01/27 09:45:36;;;;;;;5.93;5.32;;;;;;;-145.79;68.83;79582.28;5241394;28;20039;-67
2023/01/27 09:48:42;;;;;;;5.18;4.72;;;;;;;-145.79;69.35;79599.25;5245313;28;20026;-67
2023/01/27 09:51:42;;;;;;;5.88;5.28;;;;;;;-145.79;69.25;79599.25;5249593;28;20029;-67
2023/01/27 09:54:19;;;;;;;5.32;4.82;;;;;;;-145.79;69.32;79614.09;5246162;28;20387;-66
2023/01/27 09:57:23;;;;;;;16.48;12.27;;;;;;;-145.79;69.27;79624.72;5244510;28;20041;-68
2023/01/27 10:00:09;;;;;;;5.97;5.45;;;;;;;-145.79;69.24;79641.69;5241504;28;20100;-68
2023/01/27 10:03:01;;;;;;;7.93;6.88;;;;;;;-145.79;70.17;79652.28;5245015;28;20034;-68
2023/01/27 10:06:05;;;;;;;5.22;4.60;;;;;;;-145.79;69.76;79652.28;5238867;28;20029;-68
2023/01/27 10:08:55;;;;;;;5.50;4.45;;;;;;;-145.79;69.76;79650.16;5260287;28;20555;-69
2023/01/27 10:11:43;;;;;;;5.85;4.95;;;;;;;-145.79;69.52;79650.16;5232496;28;20041;-68
2023/01/27 10:14:24;;;;;;;5.57;4.90;;;;;;;-145.79;69.28;79654.41;5242767;28;20033;-69
2023/01/27 10:17:10;;;;;;;5.30;4.80;;;;;;;-145.79;69.69;79660.75;5249339;28;20029;-69
2023/01/27 10:20:08;;;;;;;;;;;;;;;-145.79;69.67;79650.16;5239251;28;20381;-68
2023/01/27 10:23:00;;;;;;;4.90;4.43;;;;;;;-145.79;70.19;79665.00;5248211;28;20413;-68
2023/01/27 10:25:49;;;;;;;4.95;4.45;;;;;;;-145.79;69.65;79665.00;5246027;28;20123;-68
2023/01/27 10:28:23;;;;;;;4.75;4.30;;;;;;;-145.79;69.70;79665.00;5236065;28;20026;-68
2023/01/27 10:31:15;;;;;;;4.90;4.25;;;;;;;-145.79;69.78;79645.91;5235673;28;20059;-68
2023/01/27 10:33:55;;;;;;;4.88;4.45;;;;;;;-145.79;69.12;79654.41;5240309;28;20079;-69
2023/01/27 10:36:28;;;;;;;6.90;4.78;;;;;;;-145.79;69.59;79654.41;5243118;28;20124;-69
2023/01/27 10:39:19;;;;;;;4.72;4.22;;;;;;;-145.79;69.80;79641.69;5246451;28;20064;-68
2023/01/27 10:42:20;;;;;;;4.68;4.28;;;;;;;-145.79;69.57;79631.06;5250068;28;20033;-68
2023/01/27 10:45:14;;;;;;;6.93;4.70;;;;;;;-145.79;69.76;79641.69;5244196;28;20018;-68
2023/01/27 10:48:07;;;;;;;8.85;4.88;;;;;;;-145.79;69.87;79645.91;5241942;28;20489;-69
2023/01/27 10:50:46;;;;;;;5.03;4.55;;;;;;;-145.79;69.65;79639.56;5243133;28;20118;-68
2023/01/27 10:53:27;;;;;;;5.97;4.80;;;;;;;-145.79;69.74;79624.72;5227817;28;20129;-68
2023/01/27 10:56:09;;;;;;;5.38;4.88;;;;;;;-145.79;69.57;79639.56;5246225;28;20022;-68
2023/01/27 10:58:59;;;;;;;5.65;4.47;;;;;;;-145.79;69.52;79633.19;5247748;28;20112;-68
2023/01/27 11:01:38;;;;;;;5.93;4.60;;;;;;;-145.79;69.80;79622.59;5246322;28;20087;-68
2023/01/27 11:04:40;;;;;;;7.30;4.82;;;;;;;-145.79;69.99;79624.72;5240879;28;20309;-68
2023/01/27 11:07:20;;;;;;;5.50;5.00;;;;;;;-145.79;68.85;79616.22;5242150;28;20045;-67
2023/01/27 11:09:56;;;;;;;5.35;4.82;;;;;;;-145.79;69.29;79620.47;5249424;28;20033;-68
2023/01/27 11:12:34;;;;;;;7.15;4.70;;;;;;;-145.79;69.43;79626.84;5246303;28;20025;-68
2023/01/27 11:15:17;;;;;;;5.97;4.55;;;;;;;-145.79;69.20;79616.22;5252053;28;20033;-68
2023/01/27 11:17:59;;;;;;;14.52;10.77;;;;;;;-145.79;69.25;79633.19;5253107;28;20045;-67
2023/01/27 11:20:38;;;;;;;6.20;5.60;;;;;;;-145.79;69.15;79624.72;5254252;28;20398;-67
2023/01/27 11:23:18;;;;;;;5.88;5.03;;;;;;;-145.79;69.08;79626.84;5244701;28;20028;-68
2023/01/27 11:26:00;;;;;;;4.63;4.20;;;;;;;-145.79;69.32;79633.19;5246588;28;20029;-68
2023/01/27 11:28:40;;;;;;;6.50;5.10;;;;;;;-145.79;69.23;79639.56;5249122;28;20022;-68
2023/01/27 11:31:17;;;;;;;5.15;4.45;;;;;;;-145.79;69.54;79631.06;5246823;28;20498;-67
2023/01/27 11:33:57;;;;;;;5.07;4.53;;;;;;;-145.79;69.49;79648.03;5251110;28;20022;-69
2023/01/27 11:36:28;;;;;;;8.32;5.32;;;;;;;-145.79;69.18;79643.81;5245533;28;20120;-68
2023/01/27 11:39:05;;;;;;;6.63;4.35;;;;;;;-145.79;69.38;79628.97;5248910;28;20070;-68
2023/01/27 11:41:44;;;;;;;6.03;4.78;;;;;;;-145.79;69.65;79628.97;5244581;28;20029;-68
2023/01/27 11:44:24;;;;;;;5.43;4.68;;;;;;;-145.79;69.24;79620.47;5249455;28;20038;-68
2023/01/27 11:46:55;;;;;;;5.40;4.10;;;;;;;-145.79;69.25;79631.06;5257856;28;20559;-68
2023/01/27 11:49:30;;;;;;;5.68;4.40;;;;;;;-145.79;69.69;79612.00;5249173;28;20127;-68
2023/01/27 11:52:15;;;;;;;7.03;4.32;;;;;;;-145.79;69.12;79595.03;5257667;28;20040;-67
2023/01/27 11:55:15;;;;;;;5.65;4.90;;;;;;;-145.79;69.36;79590.78;5246277;28;20037;-68
2023/01/27 11:58:01;;;;;;;19.00;14.45;;;;;;;-145.79;69.20;79588.66;5248288;28;20533;-68
2023/01/27 12:00:48;;;;;;;;;;;;;;;-145.79;69.02;79573.81;5243742;28;20057;-69
2023/01/27 12:03:45;;;;;;;9.10;5.03;;;;;;;-145.79;69.25;79573.81;5240992;28;20421;-71
2023/01/27 12:06:27;;;;;;;13.80;11.35;;;;;;;-145.79;68.66;79580.19;5232689;28;20111;-68
2023/01/27 12:08:58;;;;;;;5.80;4.47;;;;;;;-145.79;68.77;79597.13;5258933;28;20050;-69
2023/01/27 12:11:31;;;;;;;4.63;4.20;;;;;;;-145.79;68.90;79601.38;5250362;28;20504;-69
2023/01/27 12:14:04;;;;;;;8.30;4.88;;;;;;;-145.79;69.59;79595.03;5256477;28;20037;-68
2023/01/27 12:17:06;;;;;;;7.90;6.80;;;;;;;-145.79;69.61;79588.66;5262268;28;20040;-68
2023/01/27 12:19:41;;;;;;;5.88;4.85;;;;;;;-145.79;68.58;79590.78;5246778;28;20499;-68
2023/01/27 12:22:23;;;;;;;5.43;4.93;;;;;;;-145.79;68.61;79599.25;5255186;28;20100;-68
2023/01/27 12:25:04;;;;;;;6.18;5.00;;;;;;;-145.79;68.64;79575.94;5249082;28;20033;-68
2023/01/27 12:28:00;;;;;;;5.10;4.60;;;;;;;-145.79;69.04;79575.94;5257272;28;20044;-68
2023/01/27 12:30:37;;;;;;;6.22;4.65;;;;;;;-145.79;67.98;79582.28;5237953;28;20037;-69
2023/01/27 12:33:19;;;;;;;5.30;4.72;;;;;;;-145.79;68.52;79588.66;5251359;28;20325;-70
2023/01/27 12:35:55;;;;;;;5.47;4.95;;;;;;;-145.79;68.61;79573.81;5252705;28;20464;-69
2023/01/27 12:38:32;;;;;;;6.15;5.03;;;;;;;-145.79;68.45;79582.28;5248918;28;20567;-69
2023/01/27 12:41:06;;;;;;;7.70;6.30;;;;;;;-145.79;68.56;79580.19;5259431;28;20368;-69
2023/01/27 12:43:56;;;;;;;6.28;5.00;;;;;;;-145.79;68.85;79567.44;5250155;28;20547;-69
2023/01/27 12:46:30;;;;;;;5.40;4.90;;;;;;;-145.79;68.34;79567.44;5249232;28;20502;-69
2023/01/27 12:49:20;;;;;;;6.93;5.93;;;;;;;-145.79;68.55;79561.09;5247837;28;20060;-69
2023/01/27 12:51:54;;;;;;;6.65;6.05;;;;;;;-145.79;67.68;79569.56;5253426;28;20025;-69
2023/01/27 12:54:28;;;;;;;5.15;4.72;;;;;;;-145.79;68.05;79556.84;5257133;28;20032;-69
2023/01/27 12:57:03;;;;;;;5.72;4.97;;;;;;;-145.79;67.31;79563.22;5259965;28;20029;-69
2023/01/27 12:59:48;;;;;;;5.57;4.82;;;;;;;-145.79;68.20;79558.97;5250156;28;20391;-69
2023/01/27 13:02:25;;;;;;;5.25;4.75;;;;;;;-145.79;67.58;79565.34;5241744;28;20021;-69
2023/01/27 13:05:02;;;;;;;5.55;5.03;;;;;;;-145.79;67.13;79565.34;5245133;28;20033;-68
2023/01/27 13:08:00;;;;;;;9.40;4.97;;;;;;;-145.79;67.96;79552.59;5253218;28;20115;-68
2023/01/27 13:10:32;;;;;;;7.25;5.10;;;;;;;-145.79;67.43;79548.38;5246555;28;20076;-69
2023/01/27 13:13:03;;;;;;;7.03;6.32;;;;;;;-145.79;67.29;79554.72;5258085;28;20017;-68
2023/01/27 13:15:35;;;;;;;11.38;7.35;;;;;;;-145.79;67.38;79552.59;5250005;28;20029;-68
2023/01/27 13:18:18;;;;;;;6.03;5.40;;;;;;;-145.79;67.31;79552.59;5251565;28;20017;-68
2023/01/27 13:21:11;;;;;;;12.45;8.82;;;;;;;-145.79;67.14;79542.00;5248378;28;20036;-68
2023/01/27 13:23:46;;;;;;;12.73;9.52;;;;;;;-145.79;67.05;79539.88;5253895;28;20516;-69
2023/01/27 13:26:24;;;;;;;11.15;5.65;;;;;;;-145.79;67.10;79535.63;5254961;28;20061;-71
2023/01/27 13:29:09;;;;;;;9.00;6.00;;;;;;;-145.79;67.08;79546.25;5245419;28;20476;-67
2023/01/27 13:31:57;;;;;;;5.55;4.60;;;;;;;-145.79;67.28;79544.13;5250247;28;20479;-69
2023/01/27 13:34:46;;;;;;;5.07;4.57;;;;;;;-145.79;66.96;79556.84;5242583;28;20044;-70
2023/01/27 13:37:38;;;;;;;6.07;5.47;;;;;;;-145.79;67.30;79552.59;5227197;28;20033;-69
2023/01/27 13:40:37;;;;;;;5.68;4.93;;;;;;;-145.79;67.77;79552.59;5239803;28;20037;-70
2023/01/27 13:43:10;;;;;;;5.40;4.90;;;;;;;-145.79;67.07;79552.59;5258707;28;20021;-68
2023/01/27 13:45:46;;;;;;;6.20;5.35;;;;;;;-145.79;66.52;79556.84;5250135;28;20480;-69
2023/01/27 13:48:21;;;;;;;5.32;4.55;;;;;;;-145.79;67.01;79561.09;5262322;28;20368;-69
2023/01/27 13:51:09;;;;;;;4.70;4.30;;;;;;;-145.79;66.87;79548.38;5246273;28;20547;-69
2023/01/27 13:53:45;;;;;;;8.68;5.63;;;;;;;-145.79;67.04;79563.22;5253625;28;20459;-69
2023/01/27 13:56:35;;;;;;;4.75;4.28;;;;;;;-145.79;66.83;79550.47;5254604;28;20052;-69
2023/01/27 13:59:16;;;;;;;5.55;5.05;;;;;;;-145.79;67.31;79556.84;5257171;28;20021;-68
2023/01/27 14:02:05;;;;;;;8.75;5.70;;;;;;;-145.79;67.32;79552.59;5240239;28;20052;-69
2023/01/27 14:04:54;;;;;;;6.57;5.15;;;;;;;-145.79;67.42;79544.13;5244375;28;20053;-69
2023/01/27 14:07:43;;;;;;;5.75;4.68;;;;;;;-145.79;67.10;79539.88;5233480;28;20041;-69
2023/01/27 14:10:26;;;;;;;5.28;4.47;;;;;;;-145.79;67.03;79546.25;5242904;28;20060;-69
2023/01/27 14:13:28;;;;;;;10.32;8.27;;;;;;;-145.79;67.20;79548.38;5243501;28;20036;-69
2023/01/27 14:16:18;;;;;;;5.85;4.97;;;;;;;-145.79;66.79;79548.38;5258261;28;20041;-69
2023/01/27 14:18:59;;;;;;;5.25;4.43;;;;;;;-145.79;66.91;79554.72;5245670;28;20104;-69
2023/01/27 14:21:52;;;;;;;5.72;5.20;;;;;;;-145.79;67.21;79552.59;5249589;28;20039;-68
2023/01/27 14:24:38;;;;;;;7.72;5.05;;;;;;;-145.79;67.07;79556.84;5248306;28;20103;-69
2023/01/27 14:27:25;;;;;;;7.53;5.03;;;;;;;-145.79;67.05;79539.88;5250904;28;20071;-69
2023/01/27 14:30:10;;;;;;;5.70;4.82;;;;;;;-145.79;67.52;79548.38;5238741;28;20025;-69
2023/01/27 14:33:05;;;;;;;6.90;5.35;;;;;;;-145.79;67.77;79548.38;5230967;28;20017;-69
2023/01/27 14:36:22;;;;;;;6.63;5.20;;;;;;;-145.79;67.43;79544.13;5254465;28;20044;-69
2023/01/27 14:39:22;;;;;;;6.32;5.72;;;;;;;-145.79;67.18;79544.13;5252135;28;20033;-71
2023/01/27 14:42:01;;;;;;;6.57;5.88;;;;;;;-145.79;66.96;79556.84;5249708;28;20048;-72
2023/01/27 14:44:47;;;;;;;6.90;5.57;;;;;;;-145.79;66.84;79561.09;5240516;28;20041;-71
2023/01/27 14:47:42;;;;;;;6.82;6.13;;;;;;;-145.79;67.23;79544.13;5243521;28;20025;-71
2023/01/27 14:50:31;;;;;;;19.80;10.60;;;;;;;-145.79;66.92;79558.97;5242943;28;20041;-72
2023/01/27 14:53:05;;;;;;;7.40;6.68;;;;;;;-145.79;66.96;79531.41;5251858;28;20468;-71
2023/01/27 14:56:07;;;;;;;7.22;6.50;;;;;;;-145.79;66.48;79552.59;5252238;28;20124;-71
2023/01/27 14:58:47;;;;;;;8.52;6.93;;;;;;;-145.79;66.11;79554.72;5239176;28;20044;-72
2023/01/27 15:02:00;;;;;;;8.65;7.05;;;;;;;-145.79;66.33;79552.59;5230834;28;20052;-72
2023/01/27 15:04:43;;;;;;;8.00;7.22;;;;;;;-145.79;66.27;79561.09;5238038;28;20095;-71
2023/01/27 15:07:41;;;;;;;10.15;7.80;;;;;;;-145.79;66.44;79556.84;5229105;28;20430;-69
2023/01/27 15:10:27;;;;;;;6.90;6.20;;;;;;;-145.79;66.31;79561.09;5252351;28;20065;-69
2023/01/27 15:13:28;;;;;;;9.75;7.97;;;;;;;-145.79;66.79;79569.56;5254458;28;20033;-69
2023/01/27 15:16:26;;;;;;;6.68;5.97;;;;;;;-145.79;67.15;79563.22;5250920;28;20048;-70
2023/01/27 15:19:35;;;;;;;6.57;5.30;;;;;;;-145.79;67.17;79561.09;5242669;28;20427;-69
2023/01/27 15:22:42;;;;;;;8.77;5.63;;;;;;;-145.79;67.33;79563.22;5240443;28;20408;-70
2023/01/27 15:25:28;;;;;;;6.88;6.18;;;;;;;-145.79;66.77;79590.78;5236935;28;20438;-69
2023/01/27 15:28:01;;;;;;;11.95;6.65;;;;;;;-145.79;67.23;79590.78;5254635;28;20029;-69
2023/01/27 15:30:36;;;;;;;7.50;6.05;;;;;;;-145.79;67.31;79590.78;5245144;28;20052;-69
2023/01/27 15:33:43;;;;;;;7.35;6.30;;;;;;;-145.79;67.58;79586.53;5260120;28;20026;-69
2023/01/27 15:36:31;;;;;;;8.52;7.32;;;;;;;-145.79;67.54;79595.03;5240038;28;20072;-69
2023/01/27 15:39:08;;;;;;;8.55;7.60;;;;;;;-145.79;67.04;79595.03;5262437;28;20025;-69
2023/01/27 15:42:02;;;;;;;6.45;5.85;;;;;;;-145.79;66.08;79595.03;5257239;28;20025;-69
2023/01/27 15:44:39;;;;;;;5.47;4.97;;;;;;;-145.79;65.68;79599.25;5256764;28;20038;-69
2023/01/27 15:47:22;;;;;;;4.88;4.43;;;;;;;-145.79;64.11;79607.75;5257416;28;20036;-68
2023/01/27 15:50:05;;;;;;;5.38;4.28;;;;;;;-145.79;64.37;79620.47;5255388;28;20026;-71
2023/01/27 15:52:42;;;;;;;8.25;5.55;;;;;;;-145.79;64.79;79622.59;5244172;28;20037;-70
2023/01/27 15:55:28;;;;;;;5.30;4.40;;;;;;;-145.79;65.21;79622.59;5246564;28;20028;-70
2023/01/27 15:58:09;;;;;;;28.90;24.25;;;;;;;-145.79;64.58;79633.19;5255237;28;20040;-69
2023/01/27 16:00:47;;;;;;;11.45;6.75;;;;;;;-145.79;64.74;79628.97;5247113;28;20053;-69
2023/01/27 16:03:46;;;;;;;6.38;5.20;;;;;;;-145.79;65.40;79618.34;5247984;28;20074;-69
2023/01/27 16:06:23;;;;;;;6.30;5.60;;;;;;;-145.79;65.05;79637.44;5253583;28;20041;-69
2023/01/27 16:09:07;;;;;;;6.60;5.25;;;;;;;-145.79;65.29;79641.69;5259334;28;20032;-69
2023/01/27 16:11:41;;;;;;;5.82;5.32;;;;;;;-145.79;65.23;79633.19;5245859;28;20522;-69
2023/01/27 16:14:18;;;;;;;6.88;5.78;;;;;;;-145.79;65.42;79641.69;5247988;28;20056;-69
2023/01/27 16:16:49;;;;;;;6.18;5.60;;;;;;;-145.79;67.07;79641.69;5256676;28;20095;-69
2023/01/27 16:19:28;;;;;;;4.63;4.22;;;;;;;-145.79;71.15;79586.53;5254058;28;20026;-69
2023/01/27 16:22:15;;;;;;;7.03;6.32;;;;;;;-145.79;68.09;79614.09;5253229;28;20495;-69
2023/01/27 16:25:04;;;;;;;7.75;6.80;;;;;;;-145.79;67.58;79603.50;5247670;28;20124;-69
2023/01/27 16:27:47;;;;;;;5.90;5.40;;;;;;;-145.79;66.64;79599.25;5244628;28;20112;-69
2023/01/27 16:30:28;;;;;;;7.28;5.80;;;;;;;-145.79;66.35;79616.22;5242969;28;20021;-67
2023/01/27 16:33:14;;;;;;;9.23;8.35;;;;;;;-145.79;65.47;79624.72;5245202;28;20029;-67
